sensor_id;sensor_type;location;lat;lon;timestamp;temperature;humidity
25112;DHT22;13092;51.996;4.458;2022-11-15T00:01:33;8.90;99.90
25112;DHT22;13092;51.996;4.458;2022-11-15T00:04:06;8.90;99.90
25112;DHT22;13092;51.996;4.458;2022-11-15T00:06:34;9.00;99.90
25112;DHT22;13092;51.996;4.458;2022-11-15T00:09:04;8.90;99.90
25112;DHT22;13092;51.996;4.458;2022-11-15T00:11:32;9.00;99.90
25112;DHT22;13092;51.996;4.458;2022-11-15T00:14:00;9.00;99.90
25112;DHT22;13092;51.996;4.458;2022-11-15T00:16:29;9.00;99.90
25112;DHT22;13092;51.996;4.458;2022-11-15T00:18:57;9.00;99.90
25112;DHT22;13092;51.996;4.458;2022-11-15T00:21:28;9.00;99.90
25112;DHT22;13092;51.996;4.458;2022-11-15T00:23:56;9.00;99.90
25112;DHT22;13092;51.996;4.458;2022-11-15T00:26:25;9.10;99.90
25112;DHT22;13092;51.996;4.458;2022-11-15T00:28:53;9.10;99.90
25112;DHT22;13092;51.996;4.458;2022-11-15T00:31:21;9.10;99.90
25112;DHT22;13092;51.996;4.458;2022-11-15T00:33:49;9.00;99.90
25112;DHT22;13092;51.996;4.458;2022-11-15T00:36:17;9.10;99.90
25112;DHT22;13092;51.996;4.458;2022-11-15T00:38:48;9.20;99.90
25112;DHT22;13092;51.996;4.458;2022-11-15T00:41:16;9.30;99.90
25112;DHT22;13092;51.996;4.458;2022-11-15T00:43:46;9.20;99.90
25112;DHT22;13092;51.996;4.458;2022-11-15T00:46:14;9.20;99.90
25112;DHT22;13092;51.996;4.458;2022-11-15T00:48:42;9.20;99.90
25112;DHT22;13092;51.996;4.458;2022-11-15T00:51:10;9.10;99.90
25112;DHT22;13092;51.996;4.458;2022-11-15T00:53:39;9.20;99.90
25112;DHT22;13092;51.996;4.458;2022-11-15T00:56:08;9.30;99.90
25112;DHT22;13092;51.996;4.458;2022-11-15T00:58:36;9.40;99.90
25112;DHT22;13092;51.996;4.458;2022-11-15T01:01:08;9.30;99.90
25112;DHT22;13092;51.996;4.458;2022-11-15T01:03:37;9.30;99.90
25112;DHT22;13092;51.996;4.458;2022-11-15T01:06:07;9.30;99.90
25112;DHT22;13092;51.996;4.458;2022-11-15T01:08:35;9.40;99.90
25112;DHT22;13092;51.996;4.458;2022-11-15T01:11:04;9.40;99.90
25112;DHT22;13092;51.996;4.458;2022-11-15T01:13:34;9.50;99.90
25112;DHT22;13092;51.996;4.458;2022-11-15T01:16:08;9.50;99.90
25112;DHT22;13092;51.996;4.458;2022-11-15T01:18:36;9.50;99.90
25112;DHT22;13092;51.996;4.458;2022-11-15T01:21:06;9.50;99.90
25112;DHT22;13092;51.996;4.458;2022-11-15T01:23:34;9.50;99.90
25112;DHT22;13092;51.996;4.458;2022-11-15T01:26:04;9.60;99.90
25112;DHT22;13092;51.996;4.458;2022-11-15T01:28:34;9.70;99.90
25112;DHT22;13092;51.996;4.458;2022-11-15T01:31:04;9.60;99.90
25112;DHT22;13092;51.996;4.458;2022-11-15T01:33:35;9.60;99.90
25112;DHT22;13092;51.996;4.458;2022-11-15T01:36:04;9.60;99.90
25112;DHT22;13092;51.996;4.458;2022-11-15T01:38:32;9.60;99.90
25112;DHT22;13092;51.996;4.458;2022-11-15T01:41:00;9.60;99.90
25112;DHT22;13092;51.996;4.458;2022-11-15T01:43:30;9.80;99.90
25112;DHT22;13092;51.996;4.458;2022-11-15T01:46:02;9.70;99.90
25112;DHT22;13092;51.996;4.458;2022-11-15T01:48:33;9.70;99.90
25112;DHT22;13092;51.996;4.458;2022-11-15T01:51:06;9.80;99.90
25112;DHT22;13092;51.996;4.458;2022-11-15T01:53:35;9.80;99.90
25112;DHT22;13092;51.996;4.458;2022-11-15T01:56:07;9.80;99.90
25112;DHT22;13092;51.996;4.458;2022-11-15T01:58:37;9.90;99.90
25112;DHT22;13092;51.996;4.458;2022-11-15T02:01:06;10.00;99.90
25112;DHT22;13092;51.996;4.458;2022-11-15T02:03:41;10.00;99.90
25112;DHT22;13092;51.996;4.458;2022-11-15T02:06:12;10.10;99.90
25112;DHT22;13092;51.996;4.458;2022-11-15T02:08:42;10.10;99.90
25112;DHT22;13092;51.996;4.458;2022-11-15T02:11:10;10.30;99.90
25112;DHT22;13092;51.996;4.458;2022-11-15T02:13:39;10.20;99.90
25112;DHT22;13092;51.996;4.458;2022-11-15T02:16:13;10.30;99.90
25112;DHT22;13092;51.996;4.458;2022-11-15T02:18:51;10.30;99.90
25112;DHT22;13092;51.996;4.458;2022-11-15T02:21:27;10.30;99.90
25112;DHT22;13092;51.996;4.458;2022-11-15T02:24:19;10.40;99.90
25112;DHT22;13092;51.996;4.458;2022-11-15T02:30:04;10.50;99.90
25112;DHT22;13092;51.996;4.458;2022-11-15T02:32:40;10.50;99.90
25112;DHT22;13092;51.996;4.458;2022-11-15T02:35:16;10.60;99.90
25112;DHT22;13092;51.996;4.458;2022-11-15T02:37:52;10.50;99.90
25112;DHT22;13092;51.996;4.458;2022-11-15T02:40:29;10.60;99.90
25112;DHT22;13092;51.996;4.458;2022-11-15T02:43:10;10.70;99.90
25112;DHT22;13092;51.996;4.458;2022-11-15T02:46:01;10.70;99.90
25112;DHT22;13092;51.996;4.458;2022-11-15T02:48:33;10.70;99.90
25112;DHT22;13092;51.996;4.458;2022-11-15T02:51:02;10.70;99.90
25112;DHT22;13092;51.996;4.458;2022-11-15T02:53:31;10.70;99.90
25112;DHT22;13092;51.996;4.458;2022-11-15T02:56:00;10.80;99.90
25112;DHT22;13092;51.996;4.458;2022-11-15T02:58:53;10.90;99.90
25112;DHT22;13092;51.996;4.458;2022-11-15T03:01:33;10.80;99.90
25112;DHT22;13092;51.996;4.458;2022-11-15T03:04:14;10.80;99.90
25112;DHT22;13092;51.996;4.458;2022-11-15T03:06:52;10.90;99.90
25112;DHT22;13092;51.996;4.458;2022-11-15T03:09:30;11.00;99.90
25112;DHT22;13092;51.996;4.458;2022-11-15T03:12:07;11.00;99.90
25112;DHT22;13092;51.996;4.458;2022-11-15T03:14:42;11.00;99.90
25112;DHT22;13092;51.996;4.458;2022-11-15T03:17:18;11.10;99.90
25112;DHT22;13092;51.996;4.458;2022-11-15T03:19:51;11.30;99.90
25112;DHT22;13092;51.996;4.458;2022-11-15T03:22:25;11.20;99.90
25112;DHT22;13092;51.996;4.458;2022-11-15T03:24:58;11.20;99.90
25112;DHT22;13092;51.996;4.458;2022-11-15T03:27:34;11.30;99.90
25112;DHT22;13092;51.996;4.458;2022-11-15T03:30:06;11.30;99.90
25112;DHT22;13092;51.996;4.458;2022-11-15T03:32:37;11.40;99.90
25112;DHT22;13092;51.996;4.458;2022-11-15T03:35:10;11.40;99.90
25112;DHT22;13092;51.996;4.458;2022-11-15T03:37:44;11.40;99.90
25112;DHT22;13092;51.996;4.458;2022-11-15T03:40:14;11.50;99.90
25112;DHT22;13092;51.996;4.458;2022-11-15T03:42:46;11.50;99.90
25112;DHT22;13092;51.996;4.458;2022-11-15T03:45:20;11.50;99.90
25112;DHT22;13092;51.996;4.458;2022-11-15T03:47:53;11.50;99.90
25112;DHT22;13092;51.996;4.458;2022-11-15T03:50:28;11.60;99.90
25112;DHT22;13092;51.996;4.458;2022-11-15T03:52:57;11.60;99.90
25112;DHT22;13092;51.996;4.458;2022-11-15T03:55:26;11.60;99.90
25112;DHT22;13092;51.996;4.458;2022-11-15T03:57:58;11.80;99.90
25112;DHT22;13092;51.996;4.458;2022-11-15T04:00:29;11.70;99.90
25112;DHT22;13092;51.996;4.458;2022-11-15T04:02:57;11.60;99.90
25112;DHT22;13092;51.996;4.458;2022-11-15T04:05:27;11.70;99.90
25112;DHT22;13092;51.996;4.458;2022-11-15T04:07:55;11.80;99.90
25112;DHT22;13092;51.996;4.458;2022-11-15T04:10:23;11.80;99.90
25112;DHT22;13092;51.996;4.458;2022-11-15T04:12:51;11.80;99.90
25112;DHT22;13092;51.996;4.458;2022-11-15T04:15:21;11.90;99.90
25112;DHT22;13092;51.996;4.458;2022-11-15T04:17:51;11.90;99.90
25112;DHT22;13092;51.996;4.458;2022-11-15T04:20:21;11.90;99.90
25112;DHT22;13092;51.996;4.458;2022-11-15T04:23:11;12.00;99.90
25112;DHT22;13092;51.996;4.458;2022-11-15T04:25:59;12.10;99.90
25112;DHT22;13092;51.996;4.458;2022-11-15T04:28:28;12.00;99.90
25112;DHT22;13092;51.996;4.458;2022-11-15T04:30:56;11.90;99.90
25112;DHT22;13092;51.996;4.458;2022-11-15T04:33:24;12.00;99.90
25112;DHT22;13092;51.996;4.458;2022-11-15T04:35:53;12.20;99.90
25112;DHT22;13092;51.996;4.458;2022-11-15T04:38:39;12.00;99.90
25112;DHT22;13092;51.996;4.458;2022-11-15T04:41:07;12.10;99.90
25112;DHT22;13092;51.996;4.458;2022-11-15T04:43:35;12.10;99.90
25112;DHT22;13092;51.996;4.458;2022-11-15T04:46:04;12.10;99.90
25112;DHT22;13092;51.996;4.458;2022-11-15T04:48:32;12.10;99.90
25112;DHT22;13092;51.996;4.458;2022-11-15T04:51:00;12.00;99.90
25112;DHT22;13092;51.996;4.458;2022-11-15T04:53:28;12.10;99.90
25112;DHT22;13092;51.996;4.458;2022-11-15T04:55:58;12.10;99.90
25112;DHT22;13092;51.996;4.458;2022-11-15T04:58:26;12.10;99.90
25112;DHT22;13092;51.996;4.458;2022-11-15T05:00:54;12.10;99.90
25112;DHT22;13092;51.996;4.458;2022-11-15T05:03:22;12.10;99.90
25112;DHT22;13092;51.996;4.458;2022-11-15T05:06:05;12.10;99.90
25112;DHT22;13092;51.996;4.458;2022-11-15T05:08:33;12.10;99.90
25112;DHT22;13092;51.996;4.458;2022-11-15T05:11:02;12.20;99.90
25112;DHT22;13092;51.996;4.458;2022-11-15T05:13:30;12.10;99.90
25112;DHT22;13092;51.996;4.458;2022-11-15T05:15:59;12.00;99.90
25112;DHT22;13092;51.996;4.458;2022-11-15T05:18:27;12.10;99.90
25112;DHT22;13092;51.996;4.458;2022-11-15T05:20:55;12.10;99.90
25112;DHT22;13092;51.996;4.458;2022-11-15T05:23:24;12.10;99.90
25112;DHT22;13092;51.996;4.458;2022-11-15T05:25:52;12.20;99.90
25112;DHT22;13092;51.996;4.458;2022-11-15T05:28:22;12.10;99.90
25112;DHT22;13092;51.996;4.458;2022-11-15T05:30:50;12.00;99.90
25112;DHT22;13092;51.996;4.458;2022-11-15T05:33:21;12.10;99.90
25112;DHT22;13092;51.996;4.458;2022-11-15T05:35:56;12.10;99.90
25112;DHT22;13092;51.996;4.458;2022-11-15T05:38:25;12.10;99.90
25112;DHT22;13092;51.996;4.458;2022-11-15T05:40:53;12.10;99.90
25112;DHT22;13092;51.996;4.458;2022-11-15T05:43:23;12.10;99.90
25112;DHT22;13092;51.996;4.458;2022-11-15T05:45:52;12.10;99.90
25112;DHT22;13092;51.996;4.458;2022-11-15T05:48:20;11.90;99.90
25112;DHT22;13092;51.996;4.458;2022-11-15T05:50:48;12.10;99.90
25112;DHT22;13092;51.996;4.458;2022-11-15T05:53:18;12.00;99.90
25112;DHT22;13092;51.996;4.458;2022-11-15T05:55:47;12.00;99.90
25112;DHT22;13092;51.996;4.458;2022-11-15T05:58:15;12.00;99.90
25112;DHT22;13092;51.996;4.458;2022-11-15T06:00:45;12.00;99.90
25112;DHT22;13092;51.996;4.458;2022-11-15T06:03:13;12.00;99.90
25112;DHT22;13092;51.996;4.458;2022-11-15T06:05:41;11.90;99.90
25112;DHT22;13092;51.996;4.458;2022-11-15T06:08:09;11.90;99.90
25112;DHT22;13092;51.996;4.458;2022-11-15T06:10:37;12.00;99.90
25112;DHT22;13092;51.996;4.458;2022-11-15T06:13:05;11.90;99.90
25112;DHT22;13092;51.996;4.458;2022-11-15T06:15:33;11.80;99.90
25112;DHT22;13092;51.996;4.458;2022-11-15T06:18:03;11.80;99.90
25112;DHT22;13092;51.996;4.458;2022-11-15T06:20:31;11.80;99.90
25112;DHT22;13092;51.996;4.458;2022-11-15T06:23:01;11.80;99.90
25112;DHT22;13092;51.996;4.458;2022-11-15T06:25:30;11.70;99.90
25112;DHT22;13092;51.996;4.458;2022-11-15T06:27:59;11.70;99.90
25112;DHT22;13092;51.996;4.458;2022-11-15T06:30:27;11.70;99.90
25112;DHT22;13092;51.996;4.458;2022-11-15T06:32:59;11.60;99.90
25112;DHT22;13092;51.996;4.458;2022-11-15T06:35:32;11.60;99.90
25112;DHT22;13092;51.996;4.458;2022-11-15T06:38:06;11.60;99.90
25112;DHT22;13092;51.996;4.458;2022-11-15T06:40:35;11.60;99.90
25112;DHT22;13092;51.996;4.458;2022-11-15T06:43:03;11.50;99.90
25112;DHT22;13092;51.996;4.458;2022-11-15T06:45:32;11.50;99.90
25112;DHT22;13092;51.996;4.458;2022-11-15T06:48:04;11.40;99.90
25112;DHT22;13092;51.996;4.458;2022-11-15T06:50:33;11.50;99.90
25112;DHT22;13092;51.996;4.458;2022-11-15T06:53:02;11.50;99.90
25112;DHT22;13092;51.996;4.458;2022-11-15T06:55:31;11.40;99.90
25112;DHT22;13092;51.996;4.458;2022-11-15T06:57:59;11.40;99.90
25112;DHT22;13092;51.996;4.458;2022-11-15T07:00:27;11.40;99.90
25112;DHT22;13092;51.996;4.458;2022-11-15T07:02:56;11.40;99.90
25112;DHT22;13092;51.996;4.458;2022-11-15T07:05:30;11.30;99.90
25112;DHT22;13092;51.996;4.458;2022-11-15T07:08:00;11.40;99.90
25112;DHT22;13092;51.996;4.458;2022-11-15T07:10:31;11.40;99.90
25112;DHT22;13092;51.996;4.458;2022-11-15T07:12:59;11.40;99.90
25112;DHT22;13092;51.996;4.458;2022-11-15T07:15:29;11.40;99.90
25112;DHT22;13092;51.996;4.458;2022-11-15T07:18:00;11.40;99.90
25112;DHT22;13092;51.996;4.458;2022-11-15T07:20:28;11.40;99.90
25112;DHT22;13092;51.996;4.458;2022-11-15T07:23:04;11.40;99.90
25112;DHT22;13092;51.996;4.458;2022-11-15T07:25:32;11.40;99.90
25112;DHT22;13092;51.996;4.458;2022-11-15T07:28:02;11.40;99.90
25112;DHT22;13092;51.996;4.458;2022-11-15T07:30:30;11.40;99.90
25112;DHT22;13092;51.996;4.458;2022-11-15T07:33:00;11.40;99.90
25112;DHT22;13092;51.996;4.458;2022-11-15T07:35:35;11.40;99.90
25112;DHT22;13092;51.996;4.458;2022-11-15T07:38:07;11.40;99.90
25112;DHT22;13092;51.996;4.458;2022-11-15T07:40:35;11.50;99.90
25112;DHT22;13092;51.996;4.458;2022-11-15T07:43:07;11.50;99.90
25112;DHT22;13092;51.996;4.458;2022-11-15T07:45:40;11.50;99.90
25112;DHT22;13092;51.996;4.458;2022-11-15T07:48:10;11.40;99.90
25112;DHT22;13092;51.996;4.458;2022-11-15T07:50:41;11.40;99.90
25112;DHT22;13092;51.996;4.458;2022-11-15T07:53:11;11.40;99.90
25112;DHT22;13092;51.996;4.458;2022-11-15T07:55:41;11.40;99.90
25112;DHT22;13092;51.996;4.458;2022-11-15T07:58:11;11.40;99.90
25112;DHT22;13092;51.996;4.458;2022-11-15T08:00:39;11.40;99.90
25112;DHT22;13092;51.996;4.458;2022-11-15T08:03:09;11.40;99.90
25112;DHT22;13092;51.996;4.458;2022-11-15T08:05:39;11.30;99.90
25112;DHT22;13092;51.996;4.458;2022-11-15T08:08:09;11.40;99.90
25112;DHT22;13092;51.996;4.458;2022-11-15T08:10:39;11.40;99.90
25112;DHT22;13092;51.996;4.458;2022-11-15T08:13:09;11.30;99.90
25112;DHT22;13092;51.996;4.458;2022-11-15T08:15:38;11.30;99.90
25112;DHT22;13092;51.996;4.458;2022-11-15T08:18:10;11.40;99.90
25112;DHT22;13092;51.996;4.458;2022-11-15T08:20:40;11.40;99.90
25112;DHT22;13092;51.996;4.458;2022-11-15T08:23:11;11.40;99.90
25112;DHT22;13092;51.996;4.458;2022-11-15T08:25:42;11.40;99.90
25112;DHT22;13092;51.996;4.458;2022-11-15T08:28:11;11.40;99.90
25112;DHT22;13092;51.996;4.458;2022-11-15T08:30:41;11.50;99.90
25112;DHT22;13092;51.996;4.458;2022-11-15T08:33:12;11.50;99.90
25112;DHT22;13092;51.996;4.458;2022-11-15T08:35:42;11.50;99.90
25112;DHT22;13092;51.996;4.458;2022-11-15T08:38:11;11.50;99.90
25112;DHT22;13092;51.996;4.458;2022-11-15T08:40:42;11.50;99.90
25112;DHT22;13092;51.996;4.458;2022-11-15T08:43:12;11.40;99.90
25112;DHT22;13092;51.996;4.458;2022-11-15T08:45:44;11.50;99.90
25112;DHT22;13092;51.996;4.458;2022-11-15T08:48:13;11.60;99.90
25112;DHT22;13092;51.996;4.458;2022-11-15T08:50:45;11.60;99.90
25112;DHT22;13092;51.996;4.458;2022-11-15T08:53:15;11.60;99.90
25112;DHT22;13092;51.996;4.458;2022-11-15T08:55:45;11.60;99.90
25112;DHT22;13092;51.996;4.458;2022-11-15T08:58:14;11.50;99.90
25112;DHT22;13092;51.996;4.458;2022-11-15T09:00:42;11.60;99.90
25112;DHT22;13092;51.996;4.458;2022-11-15T09:03:10;11.50;99.90
25112;DHT22;13092;51.996;4.458;2022-11-15T09:05:38;11.60;99.90
25112;DHT22;13092;51.996;4.458;2022-11-15T09:08:07;11.60;99.90
25112;DHT22;13092;51.996;4.458;2022-11-15T09:10:57;11.60;99.90
25112;DHT22;13092;51.996;4.458;2022-11-15T09:13:25;11.70;99.90
25112;DHT22;13092;51.996;4.458;2022-11-15T09:15:57;11.70;99.90
25112;DHT22;13092;51.996;4.458;2022-11-15T09:18:25;11.70;99.90
25112;DHT22;13092;51.996;4.458;2022-11-15T09:20:55;11.70;99.90
25112;DHT22;13092;51.996;4.458;2022-11-15T09:23:25;11.80;99.90
25112;DHT22;13092;51.996;4.458;2022-11-15T09:31:59;11.90;99.90
25112;DHT22;13092;51.996;4.458;2022-11-15T09:34:27;11.90;99.90
25112;DHT22;13092;51.996;4.458;2022-11-15T09:36:55;11.90;99.90
25112;DHT22;13092;51.996;4.458;2022-11-15T09:39:23;11.90;99.90
25112;DHT22;13092;51.996;4.458;2022-11-15T09:42:03;12.00;99.90
25112;DHT22;13092;51.996;4.458;2022-11-15T09:44:42;12.00;99.90
25112;DHT22;13092;51.996;4.458;2022-11-15T09:47:49;12.00;99.90
25112;DHT22;13092;51.996;4.458;2022-11-15T09:50:31;12.00;99.90
25112;DHT22;13092;51.996;4.458;2022-11-15T09:53:00;12.00;99.90
25112;DHT22;13092;51.996;4.458;2022-11-15T09:55:43;12.00;99.90
25112;DHT22;13092;51.996;4.458;2022-11-15T09:58:20;12.00;99.90
25112;DHT22;13092;51.996;4.458;2022-11-15T10:00:51;12.10;99.90
25112;DHT22;13092;51.996;4.458;2022-11-15T10:03:27;12.10;99.90
25112;DHT22;13092;51.996;4.458;2022-11-15T10:05:59;12.10;99.90
25112;DHT22;13092;51.996;4.458;2022-11-15T10:08:52;12.00;99.90
25112;DHT22;13092;51.996;4.458;2022-11-15T10:11:36;12.10;99.90
25112;DHT22;13092;51.996;4.458;2022-11-15T10:27:39;12.30;99.90
25112;DHT22;13092;51.996;4.458;2022-11-15T10:30:45;12.30;99.90
25112;DHT22;13092;51.996;4.458;2022-11-15T13:23:36;13.70;99.90
25112;DHT22;13092;51.996;4.458;2022-11-15T13:26:21;13.70;99.90
25112;DHT22;13092;51.996;4.458;2022-11-15T13:28:51;13.70;99.90
25112;DHT22;13092;51.996;4.458;2022-11-15T13:31:25;13.70;99.90
25112;DHT22;13092;51.996;4.458;2022-11-15T13:33:56;13.70;99.90
25112;DHT22;13092;51.996;4.458;2022-11-15T13:36:27;13.70;99.90
25112;DHT22;13092;51.996;4.458;2022-11-15T13:39:00;13.60;99.90
25112;DHT22;13092;51.996;4.458;2022-11-15T13:41:31;13.60;99.90
25112;DHT22;13092;51.996;4.458;2022-11-15T13:44:00;13.60;99.90
25112;DHT22;13092;51.996;4.458;2022-11-15T13:46:30;13.60;99.90
25112;DHT22;13092;51.996;4.458;2022-11-15T13:49:01;13.60;99.90
25112;DHT22;13092;51.996;4.458;2022-11-15T13:51:35;13.50;99.90
25112;DHT22;13092;51.996;4.458;2022-11-15T13:54:13;13.50;99.90
25112;DHT22;13092;51.996;4.458;2022-11-15T13:56:46;13.40;99.90
25112;DHT22;13092;51.996;4.458;2022-11-15T13:59:20;13.50;99.90
25112;DHT22;13092;51.996;4.458;2022-11-15T14:01:50;13.50;99.90
25112;DHT22;13092;51.996;4.458;2022-11-15T14:04:21;13.60;99.90
25112;DHT22;13092;51.996;4.458;2022-11-15T14:06:52;13.60;99.90
25112;DHT22;13092;51.996;4.458;2022-11-15T14:09:33;13.60;99.90
25112;DHT22;13092;51.996;4.458;2022-11-15T14:12:22;13.60;99.90
25112;DHT22;13092;51.996;4.458;2022-11-15T14:14:50;13.50;99.90
25112;DHT22;13092;51.996;4.458;2022-11-15T14:17:21;13.50;99.90
25112;DHT22;13092;51.996;4.458;2022-11-15T14:20:00;13.60;99.90
25112;DHT22;13092;51.996;4.458;2022-11-15T14:22:29;13.50;99.90
25112;DHT22;13092;51.996;4.458;2022-11-15T14:25:15;13.60;99.90
25112;DHT22;13092;51.996;4.458;2022-11-15T14:28:07;13.50;99.90
25112;DHT22;13092;51.996;4.458;2022-11-15T14:30:33;13.50;99.90
25112;DHT22;13092;51.996;4.458;2022-11-15T14:33:01;13.60;99.90
25112;DHT22;13092;51.996;4.458;2022-11-15T14:35:38;13.60;99.90
25112;DHT22;13092;51.996;4.458;2022-11-15T14:38:07;13.60;99.90
25112;DHT22;13092;51.996;4.458;2022-11-15T14:40:37;13.60;99.90
25112;DHT22;13092;51.996;4.458;2022-11-15T14:43:11;13.60;99.90
25112;DHT22;13092;51.996;4.458;2022-11-15T14:45:43;13.60;99.90
25112;DHT22;13092;51.996;4.458;2022-11-15T14:48:12;13.60;99.90
25112;DHT22;13092;51.996;4.458;2022-11-15T14:50:40;13.60;99.90
25112;DHT22;13092;51.996;4.458;2022-11-15T14:53:12;13.60;99.90
25112;DHT22;13092;51.996;4.458;2022-11-15T14:55:57;13.60;99.90
25112;DHT22;13092;51.996;4.458;2022-11-15T14:58:26;13.50;99.90
25112;DHT22;13092;51.996;4.458;2022-11-15T15:00:54;13.60;99.90
25112;DHT22;13092;51.996;4.458;2022-11-15T15:03:22;13.70;99.90
25112;DHT22;13092;51.996;4.458;2022-11-15T15:05:53;13.70;99.90
25112;DHT22;13092;51.996;4.458;2022-11-15T15:08:32;13.60;99.90
25112;DHT22;13092;51.996;4.458;2022-11-15T15:11:27;13.50;99.90
25112;DHT22;13092;51.996;4.458;2022-11-15T15:13:56;13.60;99.90
25112;DHT22;13092;51.996;4.458;2022-11-15T15:16:27;13.60;99.90
25112;DHT22;13092;51.996;4.458;2022-11-15T15:18:55;13.70;99.90
25112;DHT22;13092;51.996;4.458;2022-11-15T15:21:26;13.60;99.90
25112;DHT22;13092;51.996;4.458;2022-11-15T15:45:42;13.50;99.90
25112;DHT22;13092;51.996;4.458;2022-11-15T15:58:41;13.30;99.90
25112;DHT22;13092;51.996;4.458;2022-11-15T16:10:28;13.10;99.90
25112;DHT22;13092;51.996;4.458;2022-11-15T16:13:31;13.00;99.90
25112;DHT22;13092;51.996;4.458;2022-11-15T16:16:12;13.20;99.90
25112;DHT22;13092;51.996;4.458;2022-11-15T16:18:48;13.00;99.90
25112;DHT22;13092;51.996;4.458;2022-11-15T16:21:25;12.90;99.90
25112;DHT22;13092;51.996;4.458;2022-11-15T16:23:53;12.90;99.90
25112;DHT22;13092;51.996;4.458;2022-11-15T16:26:26;12.90;99.90
25112;DHT22;13092;51.996;4.458;2022-11-15T16:28:55;12.80;99.90
25112;DHT22;13092;51.996;4.458;2022-11-15T16:31:23;12.80;99.90
25112;DHT22;13092;51.996;4.458;2022-11-15T16:33:54;12.80;99.90
25112;DHT22;13092;51.996;4.458;2022-11-15T16:36:24;12.80;99.90
25112;DHT22;13092;51.996;4.458;2022-11-15T16:38:57;12.80;99.90
25112;DHT22;13092;51.996;4.458;2022-11-15T16:41:27;12.80;99.90
25112;DHT22;13092;51.996;4.458;2022-11-15T16:43:55;12.90;99.90
25112;DHT22;13092;51.996;4.458;2022-11-15T16:46:24;12.80;99.90
25112;DHT22;13092;51.996;4.458;2022-11-15T16:48:53;12.70;99.90
25112;DHT22;13092;51.996;4.458;2022-11-15T16:51:22;12.70;99.90
25112;DHT22;13092;51.996;4.458;2022-11-15T16:53:51;12.70;99.90
25112;DHT22;13092;51.996;4.458;2022-11-15T16:56:23;12.70;99.90
25112;DHT22;13092;51.996;4.458;2022-11-15T16:58:54;12.60;99.90
25112;DHT22;13092;51.996;4.458;2022-11-15T17:01:25;12.70;99.90
25112;DHT22;13092;51.996;4.458;2022-11-15T17:03:54;12.60;99.90
25112;DHT22;13092;51.996;4.458;2022-11-15T17:06:24;12.60;99.90
25112;DHT22;13092;51.996;4.458;2022-11-15T17:08:53;12.60;99.90
25112;DHT22;13092;51.996;4.458;2022-11-15T17:11:22;12.50;99.90
25112;DHT22;13092;51.996;4.458;2022-11-15T17:13:50;12.60;99.90
25112;DHT22;13092;51.996;4.458;2022-11-15T17:16:20;12.60;99.90
25112;DHT22;13092;51.996;4.458;2022-11-15T17:18:50;12.60;99.90
25112;DHT22;13092;51.996;4.458;2022-11-15T17:21:22;12.60;99.90
25112;DHT22;13092;51.996;4.458;2022-11-15T17:23:50;12.60;99.90
25112;DHT22;13092;51.996;4.458;2022-11-15T17:26:22;12.60;99.90
25112;DHT22;13092;51.996;4.458;2022-11-15T17:28:57;12.60;99.90
25112;DHT22;13092;51.996;4.458;2022-11-15T17:31:29;12.50;99.90
25112;DHT22;13092;51.996;4.458;2022-11-15T17:33:59;12.60;99.90
25112;DHT22;13092;51.996;4.458;2022-11-15T17:36:28;12.50;99.90
25112;DHT22;13092;51.996;4.458;2022-11-15T17:38:57;12.60;99.90
25112;DHT22;13092;51.996;4.458;2022-11-15T17:41:26;12.60;99.90
25112;DHT22;13092;51.996;4.458;2022-11-15T17:43:55;12.60;99.90
25112;DHT22;13092;51.996;4.458;2022-11-15T17:46:28;12.60;99.90
25112;DHT22;13092;51.996;4.458;2022-11-15T17:48:56;12.60;99.90
25112;DHT22;13092;51.996;4.458;2022-11-15T17:51:25;12.60;99.90
25112;DHT22;13092;51.996;4.458;2022-11-15T17:53:57;12.60;99.90
25112;DHT22;13092;51.996;4.458;2022-11-15T17:56:26;12.60;99.90
25112;DHT22;13092;51.996;4.458;2022-11-15T17:58:57;12.60;99.90
25112;DHT22;13092;51.996;4.458;2022-11-15T18:01:28;12.60;99.90
25112;DHT22;13092;51.996;4.458;2022-11-15T18:03:58;12.60;99.90
25112;DHT22;13092;51.996;4.458;2022-11-15T18:06:29;12.60;99.90
25112;DHT22;13092;51.996;4.458;2022-11-15T18:08:58;12.70;99.90
25112;DHT22;13092;51.996;4.458;2022-11-15T18:11:28;12.70;99.90
25112;DHT22;13092;51.996;4.458;2022-11-15T18:13:57;12.70;99.90
25112;DHT22;13092;51.996;4.458;2022-11-15T18:28:14;12.70;99.90
25112;DHT22;13092;51.996;4.458;2022-11-15T18:30:42;12.70;99.90
25112;DHT22;13092;51.996;4.458;2022-11-15T18:33:10;12.70;99.90
25112;DHT22;13092;51.996;4.458;2022-11-15T18:35:39;12.70;99.90
25112;DHT22;13092;51.996;4.458;2022-11-15T18:38:07;12.60;99.90
25112;DHT22;13092;51.996;4.458;2022-11-15T18:40:35;12.70;99.90
25112;DHT22;13092;51.996;4.458;2022-11-15T18:43:03;12.70;99.90
25112;DHT22;13092;51.996;4.458;2022-11-15T18:45:34;12.80;99.90
25112;DHT22;13092;51.996;4.458;2022-11-15T18:48:03;12.80;99.90
25112;DHT22;13092;51.996;4.458;2022-11-15T18:50:31;12.70;99.90
25112;DHT22;13092;51.996;4.458;2022-11-15T18:52:59;12.80;99.90
25112;DHT22;13092;51.996;4.458;2022-11-15T18:55:27;12.80;99.90
25112;DHT22;13092;51.996;4.458;2022-11-15T18:57:55;12.80;99.90
25112;DHT22;13092;51.996;4.458;2022-11-15T19:00:23;12.70;99.90
25112;DHT22;13092;51.996;4.458;2022-11-15T19:02:54;12.70;99.90
25112;DHT22;13092;51.996;4.458;2022-11-15T19:05:22;12.70;99.90
25112;DHT22;13092;51.996;4.458;2022-11-15T19:07:50;12.70;99.90
25112;DHT22;13092;51.996;4.458;2022-11-15T19:10:18;12.80;99.90
25112;DHT22;13092;51.996;4.458;2022-11-15T19:12:46;12.80;99.90
25112;DHT22;13092;51.996;4.458;2022-11-15T19:15:15;12.80;99.90
25112;DHT22;13092;51.996;4.458;2022-11-15T19:17:43;12.80;99.90
25112;DHT22;13092;51.996;4.458;2022-11-15T19:20:12;12.80;99.90
25112;DHT22;13092;51.996;4.458;2022-11-15T19:22:40;12.80;99.90
25112;DHT22;13092;51.996;4.458;2022-11-15T19:25:08;12.80;99.90
25112;DHT22;13092;51.996;4.458;2022-11-15T19:27:37;12.80;99.90
25112;DHT22;13092;51.996;4.458;2022-11-15T19:30:06;12.80;99.90
25112;DHT22;13092;51.996;4.458;2022-11-15T19:32:35;12.80;99.90
25112;DHT22;13092;51.996;4.458;2022-11-15T19:35:04;13.00;99.90
25112;DHT22;13092;51.996;4.458;2022-11-15T19:37:35;12.80;99.90
25112;DHT22;13092;51.996;4.458;2022-11-15T19:40:04;12.80;99.90
25112;DHT22;13092;51.996;4.458;2022-11-15T19:42:32;12.90;99.90
25112;DHT22;13092;51.996;4.458;2022-11-15T19:45:00;12.90;99.90
25112;DHT22;13092;51.996;4.458;2022-11-15T19:47:28;12.90;99.90
25112;DHT22;13092;51.996;4.458;2022-11-15T19:49:56;13.00;99.90
25112;DHT22;13092;51.996;4.458;2022-11-15T19:52:24;12.80;99.90
25112;DHT22;13092;51.996;4.458;2022-11-15T19:54:54;12.80;99.90
25112;DHT22;13092;51.996;4.458;2022-11-15T19:57:22;12.80;99.90
25112;DHT22;13092;51.996;4.458;2022-11-15T19:59:50;12.80;99.90
25112;DHT22;13092;51.996;4.458;2022-11-15T20:02:18;12.90;99.90
25112;DHT22;13092;51.996;4.458;2022-11-15T20:04:47;12.90;99.90